Time;durP1;ratioP1;P1;durP2;ratioP2;P2;SDS_P1;SDS_P2;PMS_P1;PMS_P2;Temp;Humidity;BMP_temperature;BMP_pressure;BME280_temperature;BME280_humidity;BME280_pressure;Samples;Min_cycle;Max_cycle;Signal;HPM_P1;HPM_P2
2021/08/11 00:00:07;;;;;;;4.97;4.78;;;;;;;14.94;95.05;101379.50;4434545;32;20211;-67
2021/08/11 00:02:32;;;;;;;4.97;4.78;;;;;;;14.90;95.06;101378.84;4435253;32;20651;-68
2021/08/11 00:04:57;;;;;;;5.50;5.30;;;;;;;14.86;94.94;101381.75;4417740;32;20056;-67
2021/08/11 00:07:23;;;;;;;5.10;4.90;;;;;;;14.44;95.05;101317.25;4423202;32;20581;-67
2021/08/11 00:09:48;;;;;;;5.60;5.30;;;;;;;14.80;95.65;101382.97;4435607;32;20079;-67
2021/08/11 00:12:13;;;;;;;4.87;4.68;;;;;;;14.76;95.34;101384.94;4431005;32;20082;-67
2021/08/11 00:14:39;;;;;;;6.53;6.22;;;;;;;13.80;95.38;101230.28;4433862;32;20090;-66
2021/08/11 00:17:05;;;;;;;5.10;4.90;;;;;;;13.48;94.76;101184.66;4429823;32;20468;-67
2021/08/11 00:19:30;;;;;;;5.10;4.80;;;;;;;14.42;95.46;101345.56;4431096;32;20811;-67
2021/08/11 00:21:55;;;;;;;5.28;5.05;;;;;;;14.70;94.84;101392.38;4417945;32;20130;-67
2021/08/11 00:24:21;;;;;;;5.30;5.10;;;;;;;14.67;95.56;101380.19;4419555;32;20084;-67
2021/08/11 00:26:46;;;;;;;7.32;7.00;;;;;;;14.65;94.71;101384.69;4428079;32;20914;-67
2021/08/11 00:29:11;;;;;;;4.87;4.68;;;;;;;14.63;95.26;101386.56;4430041;32;20128;-67
2021/08/11 00:31:37;;;;;;;6.37;6.07;;;;;;;12.64;94.98;101061.91;4437463;32;20517;-68
2021/08/11 00:34:02;;;;;;;5.95;5.65;;;;;;;13.46;94.86;101205.00;4413859;32;20060;-67
2021/08/11 00:36:27;;;;;;;4.90;4.70;;;;;;;14.54;95.24;101387.09;4426798;32;20218;-68
2021/08/11 00:38:53;;;;;;;5.60;5.40;;;;;;;14.53;94.58;101380.09;4420255;32;20654;-68
2021/08/11 00:41:18;;;;;;;4.93;4.72;;;;;;;14.50;94.86;101385.56;4429950;32;20064;-67
2021/08/11 00:43:44;;;;;;;6.90;6.60;;;;;;;14.48;95.04;101380.38;4431814;32;20076;-68
2021/08/11 00:46:09;;;;;;;4.93;4.72;;;;;;;14.32;95.52;101354.00;4418004;32;20195;-67
2021/08/11 00:48:35;;;;;;;5.40;5.15;;;;;;;14.33;95.48;101363.63;4426664;32;20063;-68
2021/08/11 00:51:00;;;;;;;5.65;5.35;;;;;;;14.49;95.00;101389.13;4423179;32;21603;-67
2021/08/11 00:53:27;;;;;;;4.90;4.70;;;;;;;14.48;95.68;101390.94;4426328;32;20072;-67
2021/08/11 00:55:52;;;;;;;5.82;5.53;;;;;;;14.48;95.54;101383.00;4412095;32;20060;-68
2021/08/11 00:58:18;;;;;;;5.03;4.82;;;;;;;14.22;95.15;101341.41;4417799;32;20086;-67
2021/08/11 01:00:45;;;;;;;6.70;6.40;;;;;;;13.98;95.40;101304.06;4430493;32;20068;-68
2021/08/11 01:03:18;;;;;;;4.90;4.70;;;;;;;14.43;95.57;101395.63;4414978;32;20570;-67
2021/08/11 01:05:44;;;;;;;4.97;4.78;;;;;;;14.40;95.22;101394.97;4433216;32;20102;-68
2021/08/11 01:18:15;;;;;;;6.60;6.30;;;;;;;14.11;95.38;101379.84;4452146;32;21413;-67
2021/08/11 01:20:57;;;;;;;6.30;6.00;;;;;;;13.94;94.96;101348.25;4430265;32;20087;-68
2021/08/11 01:23:25;;;;;;;4.80;4.60;;;;;;;14.22;95.02;101397.69;4417436;32;20172;-67
2021/08/11 01:25:53;;;;;;;6.68;6.37;;;;;;;14.18;95.52;101390.06;4420761;32;20141;-68
2021/08/11 01:29:03;;;;;;;4.90;4.70;;;;;;;14.16;95.54;101398.06;4425859;32;20634;-67
2021/08/11 01:31:46;;;;;;;4.62;4.43;;;;;;;14.03;94.97;101379.41;4400700;32;20074;-67
2021/08/11 01:34:17;;;;;;;4.62;4.43;;;;;;;14.13;95.33;101395.56;4396813;32;20165;-67
2021/08/11 01:36:50;;;;;;;7.07;6.77;;;;;;;13.83;95.09;101350.62;4416375;32;20060;-68
2021/08/11 01:39:29;;;;;;;5.30;5.10;;;;;;;14.12;94.85;101397.34;4415589;32;20132;-67
2021/08/11 01:42:01;;;;;;;5.62;5.32;;;;;;;14.14;94.54;101392.84;4420902;32;20067;-66
2021/08/11 01:44:32;;;;;;;4.68;4.47;;;;;;;14.14;94.64;101397.28;4429433;32;20072;-67
2021/08/11 01:46:58;;;;;;;5.47;5.28;;;;;;;14.15;95.04;101396.31;4420882;32;20067;-68
2021/08/11 01:49:34;;;;;;;4.70;4.50;;;;;;;14.16;94.99;101424.44;4428211;32;20106;-68
2021/08/11 01:51:59;;;;;;;4.90;4.70;;;;;;;14.13;94.36;101401.72;4405978;32;22674;-68
2021/08/11 01:54:24;;;;;;;4.70;4.50;;;;;;;14.11;95.22;101400.97;4418691;32;20075;-67
2021/08/11 01:56:50;;;;;;;4.80;4.60;;;;;;;14.10;94.50;101399.22;4411456;32;20594;-67
2021/08/11 01:59:15;;;;;;;4.80;4.60;;;;;;;13.73;95.26;101337.09;4417848;32;20072;-68
2021/08/11 02:01:41;;;;;;;4.70;4.50;;;;;;;14.10;94.87;101403.66;4409752;32;20888;-68
2021/08/11 02:04:06;;;;;;;4.70;4.50;;;;;;;14.08;95.64;101406.37;4421799;32;20131;-67
2021/08/11 02:06:33;;;;;;;5.12;4.93;;;;;;;14.08;95.50;101405.53;4425867;32;20076;-68
2021/08/11 02:08:58;;;;;;;5.65;5.45;;;;;;;13.89;95.98;101374.91;4411617;32;20583;-67
2021/08/11 02:11:24;;;;;;;5.20;4.90;;;;;;;14.06;95.89;101413.53;4426466;32;20090;-67
2021/08/11 02:13:49;;;;;;;7.18;6.82;;;;;;;14.06;95.29;101404.78;4417473;32;20064;-68
2021/08/11 02:16:15;;;;;;;4.97;4.78;;;;;;;14.05;95.37;101422.41;4422100;32;20053;-68
2021/08/11 02:18:40;;;;;;;6.40;6.10;;;;;;;13.79;95.36;101346.44;4422151;32;20080;-68
2021/08/11 02:21:05;;;;;;;4.97;4.75;;;;;;;14.16;96.05;101405.97;4407706;32;20617;-67
2021/08/11 02:30:58;;;;;;;4.85;4.65;;;;;;;14.31;95.79;101389.28;4447505;32;20149;-67
2021/08/11 02:33:40;;;;;;;4.80;4.60;;;;;;;14.27;95.78;101385.09;4444725;32;20060;-67
2021/08/11 02:36:08;;;;;;;4.90;4.70;;;;;;;14.22;96.46;101392.41;4411555;32;20073;-69
2021/08/11 02:38:35;;;;;;;5.22;5.00;;;;;;;12.78;96.30;101180.50;4423503;32;20068;-68
2021/08/11 02:41:18;;;;;;;4.93;4.72;;;;;;;14.01;96.64;101380.41;4407772;32;21088;-67
2021/08/11 02:44:07;;;;;;;6.15;5.85;;;;;;;14.10;96.10;101390.47;4424786;32;20633;-68
2021/08/11 02:46:33;;;;;;;5.00;4.70;;;;;;;14.08;96.03;101389.72;4423089;32;20110;-68
2021/08/11 02:49:11;;;;;;;5.37;5.18;;;;;;;14.06;96.35;101402.13;4425330;32;20076;-68
2021/08/11 02:51:36;;;;;;;5.47;5.28;;;;;;;14.01;96.11;101404.16;4419462;32;20072;-69
2021/08/11 02:54:06;;;;;;;5.18;4.97;;;;;;;13.95;96.14;101400.94;4417215;32;20969;-68
2021/08/11 02:56:32;;;;;;;4.87;4.68;;;;;;;12.89;96.11;101226.50;4420605;32;20056;-67
2021/08/11 02:58:57;;;;;;;4.80;4.60;;;;;;;13.59;96.19;101343.16;4442420;32;20078;-67
2021/08/11 03:01:23;;;;;;;4.87;4.68;;;;;;;12.06;95.92;101088.72;4428467;32;20075;-68
2021/08/11 03:03:48;;;;;;;4.97;4.78;;;;;;;13.81;96.17;101387.66;4416667;32;20057;-67
2021/08/11 03:06:13;;;;;;;5.15;4.95;;;;;;;13.79;96.37;101391.31;4437340;32;20079;-68
2021/08/11 03:08:40;;;;;;;6.53;6.22;;;;;;;13.54;95.90;101366.28;4423132;32;20068;-68
2021/08/11 03:11:16;;;;;;;18.25;17.35;;;;;;;12.25;96.33;101165.78;4400399;32;20131;-69
2021/08/11 03:13:42;;;;;;;6.00;5.70;;;;;;;13.55;95.97;101374.09;4369355;32;20080;-68
2021/08/11 03:16:11;;;;;;;4.90;4.70;;;;;;;13.65;95.90;101407.88;4428145;32;20313;-67
2021/08/11 03:18:37;;;;;;;4.70;4.50;;;;;;;13.63;96.07;101404.47;4417183;32;20152;-67
2021/08/11 03:21:02;;;;;;;4.75;4.55;;;;;;;13.63;96.50;101400.06;4420830;32;20076;-67
2021/08/11 03:23:27;;;;;;;4.72;4.53;;;;;;;13.61;96.87;101406.34;4419897;32;20071;-68
2021/08/11 03:25:53;;;;;;;5.75;5.47;;;;;;;13.62;96.60;101418.59;4422789;32;20083;-67
2021/08/11 03:28:18;;;;;;;4.68;4.47;;;;;;;13.64;96.40;101407.03;4430291;32;20060;-68
2021/08/11 03:30:44;;;;;;;6.57;6.28;;;;;;;13.67;96.29;101406.87;4439864;32;20091;-68
2021/08/11 03:33:09;;;;;;;4.90;4.70;;;;;;;13.70;96.32;101396.16;4434172;32;20086;-68
2021/08/11 03:35:34;;;;;;;5.05;4.82;;;;;;;13.75;96.42;101402.03;4430304;32;20197;-68
2021/08/11 03:38:00;;;;;;;4.70;4.50;;;;;;;13.80;97.05;101400.94;4423929;32;20602;-68
2021/08/11 03:40:26;;;;;;;4.70;4.50;;;;;;;13.84;96.63;101407.75;4431125;32;20064;-67
2021/08/11 03:42:51;;;;;;;4.90;4.70;;;;;;;13.87;97.14;101413.72;4434572;32;20155;-67
2021/08/11 03:45:17;;;;;;;4.80;4.60;;;;;;;13.92;96.80;101406.37;4435860;32;20075;-68
2021/08/11 03:47:43;;;;;;;6.28;5.97;;;;;;;13.80;97.28;101383.31;4436700;32;20071;-67
2021/08/11 03:50:12;;;;;;;4.72;4.53;;;;;;;13.82;97.21;101381.44;4430962;32;20085;-67
2021/08/11 03:52:38;;;;;;;5.85;5.60;;;;;;;13.73;97.16;101379.28;4427282;32;20524;-68
2021/08/11 03:55:03;;;;;;;5.00;4.80;;;;;;;14.08;96.72;101414.31;4416766;32;20082;-67
2021/08/11 03:57:29;;;;;;;4.80;4.60;;;;;;;14.15;96.51;101428.00;4438900;32;20072;-67
2021/08/11 03:59:54;;;;;;;5.50;5.30;;;;;;;14.18;96.83;101422.56;4420697;32;20140;-68
2021/08/11 04:02:19;;;;;;;4.80;4.60;;;;;;;14.21;97.26;101425.03;4433485;32;20071;-68
2021/08/11 04:04:45;;;;;;;4.70;4.50;;;;;;;14.10;97.20;101401.03;4429862;32;20565;-67
2021/08/11 04:07:10;;;;;;;4.80;4.60;;;;;;;13.16;96.81;101256.63;4427969;32;20110;-67
2021/08/11 04:09:35;;;;;;;5.37;5.15;;;;;;;14.36;96.97;101433.87;4433796;32;20087;-68
2021/08/11 04:12:01;;;;;;;4.90;4.70;;;;;;;14.40;97.23;101430.13;4424620;32;20076;-67
2021/08/11 04:14:26;;;;;;;5.10;4.90;;;;;;;14.40;97.38;101437.22;4440396;32;20098;-67
2021/08/11 04:16:52;;;;;;;5.80;5.57;;;;;;;14.40;97.69;101438.06;4426755;32;21051;-68
2021/08/11 04:19:17;;;;;;;4.85;4.65;;;;;;;14.39;97.59;101430.22;4419610;32;20166;-67
2021/08/11 04:21:42;;;;;;;4.60;4.40;;;;;;;14.41;97.08;101428.34;4429672;32;20664;-68
2021/08/11 04:24:08;;;;;;;6.60;6.00;;;;;;;14.32;97.13;101433.19;4415073;32;20071;-68
2021/08/11 04:26:33;;;;;;;4.78;4.57;;;;;;;14.24;96.49;101426.66;4436946;32;20631;-67
2021/08/11 04:28:58;;;;;;;5.00;4.80;;;;;;;14.05;96.90;101403.06;4425580;32;20154;-68
2021/08/11 04:31:24;;;;;;;4.80;4.60;;;;;;;14.10;96.94;101419.50;4426840;32;20076;-67
2021/08/11 04:33:49;;;;;;;7.28;6.87;;;;;;;14.11;97.13;101419.44;4421924;32;20489;-68
2021/08/11 04:36:14;;;;;;;4.93;4.72;;;;;;;14.17;97.31;101426.13;4441886;32;20379;-68
2021/08/11 04:38:40;;;;;;;5.97;5.68;;;;;;;14.21;97.82;101432.09;4430278;32;20063;-68
2021/08/11 04:41:05;;;;;;;5.40;5.20;;;;;;;14.21;97.72;101430.31;4421958;32;20067;-68
2021/08/11 04:43:30;;;;;;;5.10;4.90;;;;;;;14.06;97.37;101423.25;4433362;32;20072;-68
2021/08/11 04:45:56;;;;;;;5.78;5.47;;;;;;;14.06;97.27;101431.16;4435441;32;20064;-67
2021/08/11 04:48:21;;;;;;;4.50;4.30;;;;;;;13.87;97.21;101382.06;4425660;32;20071;-67
2021/08/11 04:50:46;;;;;;;6.05;5.75;;;;;;;14.20;96.92;101430.41;4429065;32;20668;-67
2021/08/11 04:53:12;;;;;;;5.00;4.80;;;;;;;14.18;97.24;101432.28;4424655;32;21389;-66
2021/08/11 04:55:37;;;;;;;4.70;4.50;;;;;;;14.28;96.87;101438.75;4426355;32;20088;-66
2021/08/11 04:58:03;;;;;;;5.20;5.00;;;;;;;14.32;96.71;101435.84;4433033;32;20131;-67
2021/08/11 05:00:28;;;;;;;5.00;4.80;;;;;;;14.31;97.19;101442.09;4443174;32;20636;-66
2021/08/11 05:02:54;;;;;;;5.45;5.25;;;;;;;14.42;96.66;101448.53;4408966;32;20072;-67
2021/08/11 05:05:19;;;;;;;4.85;4.65;;;;;;;14.53;96.59;101447.00;4436208;32;20072;-67
2021/08/11 05:07:44;;;;;;;6.43;6.12;;;;;;;14.62;96.68;101450.09;4423849;32;20348;-67
2021/08/11 05:10:10;;;;;;;4.60;4.40;;;;;;;14.71;96.51;101445.12;4427262;32;20072;-67
2021/08/11 05:12:36;;;;;;;5.53;5.28;;;;;;;14.79;96.39;101442.03;4425775;32;20432;-68
2021/08/11 05:15:02;;;;;;;5.55;5.25;;;;;;;14.57;95.60;101386.94;4430167;32;20148;-67
2021/08/11 05:17:28;;;;;;;4.70;4.50;;;;;;;15.07;96.21;101443.91;4417429;32;20076;-67
2021/08/11 05:19:53;;;;;;;5.55;5.28;;;;;;;15.20;95.21;101440.56;4417971;32;20147;-68
2021/08/11 05:22:19;;;;;;;5.03;4.82;;;;;;;15.13;95.45;101448.84;4418177;32;20103;-67
2021/08/11 05:24:44;;;;;;;6.00;5.70;;;;;;;15.18;94.53;101451.22;4437775;32;21249;-68
2021/08/11 05:27:10;;;;;;;4.70;4.50;;;;;;;15.24;94.96;101450.84;4418728;32;21712;-67
2021/08/11 05:29:36;;;;;;;5.68;5.37;;;;;;;15.25;94.56;101454.31;4437350;32;20606;-67
2021/08/11 05:32:01;;;;;;;5.72;5.47;;;;;;;15.35;95.15;101455.47;4430225;32;20113;-67
2021/08/11 05:34:27;;;;;;;4.70;4.50;;;;;;;15.43;94.85;101461.16;4428726;32;20102;-67
2021/08/11 05:36:52;;;;;;;6.35;6.05;;;;;;;15.33;94.36;101452.06;4421597;32;20195;-68
2021/08/11 05:39:17;;;;;;;4.68;4.47;;;;;;;15.44;93.85;101454.09;4432910;32;20291;-67
2021/08/11 05:41:43;;;;;;;6.45;6.15;;;;;;;15.55;94.55;101457.78;4439199;32;20076;-68
2021/08/11 05:44:08;;;;;;;4.90;4.70;;;;;;;15.68;94.07;101460.53;4432404;32;20086;-67
2021/08/11 05:46:34;;;;;;;5.97;5.68;;;;;;;15.86;94.10;101463.00;4419753;32;20598;-67
2021/08/11 05:49:06;;;;;;;5.10;4.90;;;;;;;16.14;93.14;101472.72;4436998;32;20225;-67
2021/08/11 05:51:34;;;;;;;4.75;4.55;;;;;;;16.20;91.81;101467.03;4423308;32;20080;-67
2021/08/11 05:54:01;;;;;;;4.97;4.78;;;;;;;16.48;91.38;101473.22;4430675;32;20608;-67
2021/08/11 05:56:26;;;;;;;5.15;4.95;;;;;;;16.37;89.69;101475.69;4423022;32;20079;-67
2021/08/11 05:58:52;;;;;;;5.72;5.50;;;;;;;16.26;90.32;101455.22;4438526;32;20246;-67
2021/08/11 06:01:17;;;;;;;5.25;5.05;;;;;;;16.68;91.25;101477.22;4429539;32;20080;-67
2021/08/11 06:03:43;;;;;;;6.78;6.47;;;;;;;16.66;89.95;101460.56;4437971;32;20059;-68
2021/08/11 06:06:09;;;;;;;5.50;5.20;;;;;;;16.84;88.28;101487.66;4430177;32;20069;-67
2021/08/11 06:08:35;;;;;;;5.50;5.28;;;;;;;16.99;87.81;101494.63;4438792;32;20141;-68
2021/08/11 06:11:00;;;;;;;5.50;5.30;;;;;;;16.99;88.07;101478.72;4430754;32;20072;-67
2021/08/11 06:13:26;;;;;;;5.50;5.20;;;;;;;16.89;87.09;101482.94;4429987;32;20121;-67
2021/08/11 06:15:51;;;;;;;6.10;5.80;;;;;;;16.72;88.31;101487.50;4418986;32;20279;-68
2021/08/11 06:18:17;;;;;;;5.07;4.87;;;;;;;16.65;88.87;101482.72;4426330;32;20499;-67
2021/08/11 06:20:43;;;;;;;5.35;5.12;;;;;;;16.77;89.13;101492.50;4422250;32;20631;-67
2021/08/11 06:23:08;;;;;;;5.60;5.30;;;;;;;17.00;88.75;101492.81;4428102;32;20083;-68
2021/08/11 06:25:34;;;;;;;5.37;5.18;;;;;;;17.05;88.19;101483.59;4422051;32;20068;-68
2021/08/11 06:27:59;;;;;;;5.78;5.47;;;;;;;17.06;87.94;101489.75;4420015;32;20635;-68
2021/08/11 06:30:24;;;;;;;5.28;5.07;;;;;;;17.07;87.52;101484.34;4433354;32;20087;-68
2021/08/11 06:32:50;;;;;;;5.12;4.93;;;;;;;17.23;88.51;101497.44;4429367;32;20486;-68
2021/08/11 06:35:15;;;;;;;5.72;5.43;;;;;;;17.21;88.50;101490.53;4428503;32;20076;-69
2021/08/11 06:37:48;;;;;;;6.93;6.53;;;;;;;17.39;87.01;101509.66;4437860;32;20077;-68
2021/08/11 06:40:13;;;;;;;;;;;;;;;17.39;86.64;101504.34;4431456;32;20091;-68
2021/08/11 06:42:39;;;;;;;6.78;6.47;;;;;;;17.40;87.27;101485.69;4430158;32;19971;-69
2021/08/11 06:45:05;;;;;;;5.50;5.30;;;;;;;17.51;86.13;101501.69;4433906;32;20982;-69
2021/08/11 06:47:31;;;;;;;5.10;4.90;;;;;;;17.68;85.80;101505.00;4436499;32;20152;-69
2021/08/11 06:49:56;;;;;;;5.80;5.50;;;;;;;17.36;86.39;101439.09;4434630;32;20086;-65
2021/08/11 06:52:22;;;;;;;5.70;5.40;;;;;;;17.71;85.74;101505.63;4434325;32;20103;-69
2021/08/11 06:54:47;;;;;;;6.75;6.45;;;;;;;17.40;86.01;101487.47;4423497;32;20060;-67
2021/08/11 06:57:12;;;;;;;5.62;5.32;;;;;;;17.74;86.64;101504.59;4418192;32;20083;-68
2021/08/11 06:59:38;;;;;;;6.75;6.28;;;;;;;17.87;86.77;101492.16;4438581;32;20690;-68
2021/08/11 07:02:03;;;;;;;5.37;5.07;;;;;;;18.05;85.69;101502.47;4416979;32;20072;-67
2021/08/11 07:04:29;;;;;;;6.30;5.90;;;;;;;18.03;85.37;101462.72;4439198;32;20102;-68
2021/08/11 07:06:55;;;;;;;6.68;6.37;;;;;;;18.09;83.40;101450.81;4428253;32;20581;-68
2021/08/11 07:09:22;;;;;;;6.43;6.12;;;;;;;18.45;83.29;101505.75;4423949;32;20160;-68
2021/08/11 07:11:48;;;;;;;7.00;6.70;;;;;;;18.24;83.84;101467.44;4420731;32;20101;-66
2021/08/11 07:14:13;;;;;;;6.32;5.82;;;;;;;18.50;82.90;101521.37;4420888;32;20098;-66
2021/08/11 07:16:38;;;;;;;7.47;6.87;;;;;;;18.56;82.56;101499.66;4432797;32;20072;-66
2021/08/11 07:19:04;;;;;;;5.80;5.50;;;;;;;18.69;80.99;101519.06;4427997;32;20095;-66
2021/08/11 07:21:29;;;;;;;7.00;6.03;;;;;;;18.50;80.73;101526.69;4416076;32;20079;-65
2021/08/11 07:23:54;;;;;;;6.18;5.78;;;;;;;18.44;81.69;101525.34;4409239;32;20302;-66
2021/08/11 07:26:20;;;;;;;5.43;5.22;;;;;;;18.58;82.38;101520.81;4428284;32;20538;-66
2021/08/11 07:28:46;;;;;;;7.50;7.10;;;;;;;18.89;81.14;101516.78;4429637;32;20077;-66
2021/08/11 07:31:11;;;;;;;5.90;5.40;;;;;;;19.01;80.90;101520.34;4438738;32;20107;-67
2021/08/11 07:33:36;;;;;;;6.47;6.12;;;;;;;18.90;80.06;101523.78;4435084;32;20136;-66
2021/08/11 07:36:02;;;;;;;5.60;5.30;;;;;;;18.84;80.58;101506.50;4430228;32;20088;-67
2021/08/11 07:38:27;;;;;;;6.03;5.62;;;;;;;18.83;80.85;101536.69;4420253;32;20136;-66
2021/08/11 07:40:52;;;;;;;7.85;6.95;;;;;;;18.82;80.21;101512.88;4413361;32;20094;-67
2021/08/11 07:43:18;;;;;;;6.40;6.00;;;;;;;19.08;80.56;101542.84;4425900;32;20271;-67
2021/08/11 07:45:44;;;;;;;8.18;7.57;;;;;;;19.05;80.21;101535.13;4417086;32;20823;-65
2021/08/11 07:48:09;;;;;;;6.05;5.72;;;;;;;19.20;80.20;101541.94;4418083;32;20689;-64
2021/08/11 07:50:36;;;;;;;7.43;6.93;;;;;;;19.28;78.92;101541.34;4413069;32;20068;-68
2021/08/11 07:53:02;;;;;;;6.87;6.37;;;;;;;19.31;79.40;101541.13;4404363;32;20434;-70
2021/08/11 07:55:28;;;;;;;6.45;6.05;;;;;;;19.57;79.16;101536.47;4412570;32;20077;-69
2021/08/11 07:57:53;;;;;;;7.28;6.70;;;;;;;19.52;77.96;101539.50;4403208;32;20068;-68
2021/08/11 08:00:20;;;;;;;6.32;5.75;;;;;;;19.59;77.74;101533.72;4410924;32;20080;-69
2021/08/11 08:02:46;;;;;;;7.55;7.15;;;;;;;19.88;77.67;101556.28;4414067;32;20076;-69
2021/08/11 08:05:11;;;;;;;6.62;6.12;;;;;;;19.70;76.92;101501.75;4410516;32;20631;-67
2021/08/11 08:07:37;;;;;;;7.20;6.70;;;;;;;20.16;75.63;101542.63;4415450;32;20079;-66
2021/08/11 08:10:03;;;;;;;6.00;5.68;;;;;;;19.26;74.70;101367.62;4405397;32;21076;-68
2021/08/11 08:12:28;;;;;;;7.22;6.62;;;;;;;20.40;74.71;101553.13;4420945;32;20072;-69
2021/08/11 08:14:54;;;;;;;7.43;6.93;;;;;;;20.22;75.76;101548.28;4393004;32;20541;-66
2021/08/11 08:17:19;;;;;;;5.75;5.43;;;;;;;20.66;75.41;101546.56;4413570;32;20076;-67
2021/08/11 08:19:44;;;;;;;6.57;6.18;;;;;;;20.64;73.65;101547.66;4408693;32;20077;-67
2021/08/11 08:22:10;;;;;;;7.32;6.78;;;;;;;20.41;74.45;101549.50;4402365;32;20506;-68
2021/08/11 08:24:35;;;;;;;7.40;6.93;;;;;;;20.29;75.81;101543.34;4416629;32;20150;-68
2021/08/11 08:27:01;;;;;;;6.50;6.10;;;;;;;20.61;75.52;101551.44;4420059;32;20064;-67
2021/08/11 08:29:26;;;;;;;6.35;5.95;;;;;;;20.85;74.60;101542.41;4421251;32;20619;-67
2021/08/11 08:31:52;;;;;;;8.50;7.97;;;;;;;20.60;73.22;101471.53;4404595;32;20602;-70
2021/08/11 08:34:17;;;;;;;6.47;6.07;;;;;;;21.18;71.77;101535.22;4418800;32;20072;-68
2021/08/11 08:36:42;;;;;;;8.23;7.72;;;;;;;21.09;70.84;101531.53;4400652;32;20094;-68
2021/08/11 08:39:08;;;;;;;5.80;5.50;;;;;;;21.01;71.44;101534.00;4425574;32;20141;-67
2021/08/11 08:41:34;;;;;;;6.05;5.75;;;;;;;20.88;71.77;101518.97;4408686;32;20080;-68
2021/08/11 08:44:00;;;;;;;7.00;6.50;;;;;;;21.02;70.61;101533.84;4414786;32;20233;-68
2021/08/11 08:46:25;;;;;;;6.12;5.82;;;;;;;21.07;71.19;101534.31;4420775;32;20586;-70
2021/08/11 08:48:51;;;;;;;7.15;6.57;;;;;;;21.28;71.22;101525.47;4409880;32;20091;-71
2021/08/11 08:51:16;;;;;;;6.40;6.00;;;;;;;21.45;70.10;101524.09;4429343;32;20071;-74
2021/08/11 08:53:42;;;;;;;5.60;5.30;;;;;;;21.62;69.53;101527.97;4423970;32;20081;-68
2021/08/11 08:56:07;;;;;;;7.15;6.65;;;;;;;21.60;70.33;101519.25;4413825;32;20092;-68
2021/08/11 08:58:33;;;;;;;6.78;6.37;;;;;;;21.64;69.87;101524.19;4431448;32;20222;-70
2021/08/11 09:00:58;;;;;;;6.57;6.20;;;;;;;21.81;69.23;101520.06;4443852;32;20106;-68
2021/08/11 09:03:23;;;;;;;6.07;5.70;;;;;;;22.10;68.62;101527.34;4435196;32;20075;-69
2021/08/11 09:05:49;;;;;;;6.28;5.87;;;;;;;22.02;68.99;101522.69;4422150;32;20072;-67
2021/08/11 09:08:14;;;;;;;5.85;5.55;;;;;;;22.20;68.29;101522.03;4422910;32;20071;-67
2021/08/11 09:10:41;;;;;;;6.93;6.53;;;;;;;22.40;66.89;101525.66;4432943;32;20227;-68
2021/08/11 09:13:20;;;;;;;6.20;5.90;;;;;;;22.30;66.52;101523.78;4423176;32;20096;-68
2021/08/11 09:15:53;;;;;;;8.68;8.15;;;;;;;22.33;67.59;101528.03;4431021;32;20756;-69
2021/08/11 09:18:20;;;;;;;6.62;6.18;;;;;;;22.40;66.68;101523.81;4424592;32;20172;-67
2021/08/11 09:20:50;;;;;;;8.73;8.15;;;;;;;22.43;66.75;101533.38;4423605;32;20403;-68
2021/08/11 09:23:31;;;;;;;5.85;5.50;;;;;;;22.49;65.70;101517.66;4423838;32;20202;-67
2021/08/11 09:26:00;;;;;;;6.50;6.18;;;;;;;22.14;67.13;101531.44;4426585;32;20068;-67
2021/08/11 09:28:27;;;;;;;6.62;6.22;;;;;;;22.75;65.46;101525.13;4432910;32;20138;-67
2021/08/11 09:30:53;;;;;;;6.57;6.10;;;;;;;23.27;64.35;101527.56;4424145;32;20561;-66
2021/08/11 09:33:22;;;;;;;6.82;6.43;;;;;;;23.39;63.68;101520.22;4418274;32;20082;-67
2021/08/11 09:35:47;;;;;;;8.40;7.90;;;;;;;23.59;63.05;101519.16;4433804;32;20160;-67
2021/08/11 09:38:13;;;;;;;6.80;6.30;;;;;;;23.59;62.85;101512.97;4419422;32;20419;-67
2021/08/11 09:40:40;;;;;;;7.90;7.40;;;;;;;23.65;61.40;101509.72;4431426;32;20086;-67
2021/08/11 09:43:06;;;;;;;6.97;6.50;;;;;;;23.49;61.69;101508.50;4413555;32;20096;-67
2021/08/11 09:45:45;;;;;;;6.62;6.18;;;;;;;23.57;62.23;101505.06;4434744;32;20283;-68
2021/08/11 09:48:10;;;;;;;7.12;6.53;;;;;;;22.83;63.60;101514.59;4429610;32;20085;-67
2021/08/11 09:50:37;;;;;;;7.15;6.78;;;;;;;22.67;64.57;101522.31;4425779;32;20075;-68
2021/08/11 09:53:03;;;;;;;6.20;5.90;;;;;;;22.49;64.04;101528.34;4452454;32;20079;-67
2021/08/11 09:55:28;;;;;;;6.68;6.18;;;;;;;22.54;64.70;101527.94;4434437;32;20224;-67
2021/08/11 09:57:53;;;;;;;6.53;6.12;;;;;;;22.87;63.90;101525.84;4424184;32;20379;-67
2021/08/11 10:00:19;;;;;;;6.95;6.55;;;;;;;23.05;64.86;101529.56;4419478;32;20916;-67
2021/08/11 10:02:45;;;;;;;7.72;7.22;;;;;;;23.16;63.53;101514.34;4441741;32;20076;-68
2021/08/11 10:05:37;;;;;;;7.00;6.50;;;;;;;23.03;62.25;101530.69;4426056;32;20090;-67
2021/08/11 10:08:02;;;;;;;6.03;5.72;;;;;;;23.06;62.61;101523.22;4436238;32;20065;-68
2021/08/11 10:10:27;;;;;;;6.15;5.82;;;;;;;23.22;63.45;101530.66;4438642;32;20468;-67
2021/08/11 10:12:53;;;;;;;6.62;6.32;;;;;;;22.90;60.70;101525.59;4426972;32;20606;-67
2021/08/11 10:15:19;;;;;;;5.82;5.53;;;;;;;23.02;62.44;101511.09;4428875;32;20664;-67
2021/08/11 10:17:44;;;;;;;8.10;7.60;;;;;;;23.16;60.80;101530.41;4425407;32;20626;-67
2021/08/11 10:20:10;;;;;;;6.15;5.85;;;;;;;23.55;61.10;101525.81;4428894;32;20098;-67
2021/08/11 10:22:39;;;;;;;6.75;6.37;;;;;;;23.76;61.31;101533.66;4423345;32;20431;-66
2021/08/11 10:25:05;;;;;;;5.95;5.65;;;;;;;23.65;60.33;101523.09;4435978;32;20085;-67
2021/08/11 10:27:30;;;;;;;6.20;5.90;;;;;;;23.31;59.94;101528.97;4423106;32;20076;-67
2021/08/11 10:29:56;;;;;;;7.20;6.70;;;;;;;23.23;61.80;101531.50;4423106;32;20776;-67
2021/08/11 10:32:21;;;;;;;6.25;5.95;;;;;;;22.93;62.37;101530.62;4415617;32;20107;-67
2021/08/11 10:34:47;;;;;;;5.90;5.60;;;;;;;22.98;62.91;101536.44;4433251;32;20871;-67
2021/08/11 10:37:13;;;;;;;6.18;5.80;;;;;;;23.19;61.11;101530.94;4430800;32;20088;-67
2021/08/11 10:39:39;;;;;;;7.43;7.03;;;;;;;23.27;60.78;101528.44;4428240;32;20061;-67
2021/08/11 10:42:12;;;;;;;5.78;5.47;;;;;;;23.76;58.68;101520.25;4434531;32;20459;-67
2021/08/11 10:44:38;;;;;;;6.87;6.53;;;;;;;23.72;59.75;101484.03;4431682;32;20182;-67
2021/08/11 10:47:04;;;;;;;6.05;5.75;;;;;;;24.09;58.42;101512.66;4431327;32;21222;-68
2021/08/11 10:49:29;;;;;;;6.37;5.95;;;;;;;24.21;56.73;101516.84;4433684;32;20085;-67
2021/08/11 10:52:16;;;;;;;6.55;6.25;;;;;;;24.35;55.83;101530.75;4420718;32;20084;-67
2021/08/11 10:54:52;;;;;;;5.90;5.60;;;;;;;25.01;55.02;101522.41;4430385;32;20064;-68
2021/08/11 10:57:40;;;;;;;6.25;5.80;;;;;;;25.52;54.09;101517.28;4422309;32;20123;-67
2021/08/11 11:00:20;;;;;;;6.68;6.18;;;;;;;24.66;53.33;101516.03;4444621;32;20116;-68
2021/08/11 11:02:49;;;;;;;7.45;7.05;;;;;;;24.36;55.37;101498.41;4439719;32;20087;-68
2021/08/11 11:05:14;;;;;;;5.85;5.55;;;;;;;24.28;55.56;101517.09;4417930;32;20189;-67
2021/08/11 11:07:40;;;;;;;7.93;7.53;;;;;;;24.83;55.94;101516.19;4443865;32;20657;-68
2021/08/11 11:10:26;;;;;;;5.70;5.40;;;;;;;24.77;55.54;101500.69;4431652;32;20597;-68
2021/08/11 11:12:51;;;;;;;8.05;7.55;;;;;;;25.09;53.44;101511.72;4416258;32;20099;-68
2021/08/11 11:15:16;;;;;;;6.53;6.00;;;;;;;24.68;52.37;101515.91;4425823;32;20695;-68
2021/08/11 11:18:23;;;;;;;7.78;7.37;;;;;;;25.05;52.73;101517.56;4406858;32;20106;-68
2021/08/11 11:20:55;;;;;;;6.05;5.75;;;;;;;24.73;53.87;101510.91;4430521;32;20067;-67
2021/08/11 11:23:31;;;;;;;5.70;5.45;;;;;;;25.16;50.75;101508.41;4427417;32;20652;-67
2021/08/11 11:26:01;;;;;;;6.22;5.93;;;;;;;25.49;52.59;101512.22;4439155;32;20122;-68
2021/08/11 11:29:08;;;;;;;6.10;5.70;;;;;;;26.10;51.19;101512.22;4426226;32;20146;-68
2021/08/11 11:31:45;;;;;;;5.87;5.57;;;;;;;25.95;50.42;101512.84;4349728;32;20170;-68
2021/08/11 11:34:29;;;;;;;6.30;5.90;;;;;;;25.89;48.89;101502.69;4427376;32;20189;-68
2021/08/11 11:36:54;;;;;;;7.25;6.85;;;;;;;26.24;51.82;101506.22;4433832;32;20082;-68
2021/08/11 11:39:20;;;;;;;6.10;5.70;;;;;;;26.10;51.48;101512.22;4449400;32;20088;-68
2021/08/11 11:42:25;;;;;;;6.37;6.07;;;;;;;26.71;48.81;101503.00;4433160;32;20165;-67